sensor_id;sensor_type;location;lat;lon;timestamp;P1;durP1;ratioP1;P2;durP2;ratioP2
76733;SDS011;65660;53.288;14.666;2023-03-14T00:03:56;4.17;;;3.07;;
76733;SDS011;65660;53.288;14.666;2023-03-14T00:08:57;5.13;;;3.10;;
76733;SDS011;65660;53.288;14.666;2023-03-14T00:13:57;3.60;;;3.00;;
76733;SDS011;65660;53.288;14.666;2023-03-14T00:18:58;5.97;;;3.03;;
76733;SDS011;65660;53.288;14.666;2023-03-14T00:23:59;4.33;;;2.93;;
76733;SDS011;65660;53.288;14.666;2023-03-14T00:28:59;4.97;;;3.10;;
76733;SDS011;65660;53.288;14.666;2023-03-14T00:33:59;3.27;;;2.80;;
76733;SDS011;65660;53.288;14.666;2023-03-14T00:39:00;3.80;;;2.80;;
76733;SDS011;65660;53.288;14.666;2023-03-14T00:44:00;2.80;;;2.40;;
76733;SDS011;65660;53.288;14.666;2023-03-14T00:49:01;3.07;;;2.47;;
76733;SDS011;65660;53.288;14.666;2023-03-14T00:54:01;3.30;;;2.30;;
76733;SDS011;65660;53.288;14.666;2023-03-14T00:59:02;3.40;;;2.50;;
76733;SDS011;65660;53.288;14.666;2023-03-14T01:04:03;3.30;;;2.40;;
76733;SDS011;65660;53.288;14.666;2023-03-14T01:09:03;3.43;;;2.40;;
76733;SDS011;65660;53.288;14.666;2023-03-14T01:14:03;3.53;;;2.50;;
76733;SDS011;65660;53.288;14.666;2023-03-14T01:19:04;2.90;;;2.50;;
76733;SDS011;65660;53.288;14.666;2023-03-14T01:24:05;5.13;;;2.40;;
76733;SDS011;65660;53.288;14.666;2023-03-14T01:29:06;3.27;;;3.00;;
76733;SDS011;65660;53.288;14.666;2023-03-14T01:34:06;2.83;;;2.50;;
76733;SDS011;65660;53.288;14.666;2023-03-14T01:39:07;2.33;;;1.90;;
76733;SDS011;65660;53.288;14.666;2023-03-14T01:44:11;2.20;;;1.87;;
76733;SDS011;65660;53.288;14.666;2023-03-14T01:49:31;2.07;;;1.87;;
76733;SDS011;65660;53.288;14.666;2023-03-14T01:59:43;2.63;;;1.80;;
76733;SDS011;65660;53.288;14.666;2023-03-14T02:04:47;3.07;;;1.80;;
76733;SDS011;65660;53.288;14.666;2023-03-14T02:09:48;2.33;;;1.90;;
76733;SDS011;65660;53.288;14.666;2023-03-14T02:14:49;1.70;;;1.60;;
76733;SDS011;65660;53.288;14.666;2023-03-14T02:25:44;2.13;;;1.33;;
76733;SDS011;65660;53.288;14.666;2023-03-14T02:30:48;2.40;;;1.67;;
76733;SDS011;65660;53.288;14.666;2023-03-14T02:35:59;1.80;;;1.67;;
76733;SDS011;65660;53.288;14.666;2023-03-14T02:41:01;1.67;;;1.50;;
76733;SDS011;65660;53.288;14.666;2023-03-14T02:46:02;2.13;;;1.37;;
76733;SDS011;65660;53.288;14.666;2023-03-14T02:51:04;2.47;;;1.30;;
76733;SDS011;65660;53.288;14.666;2023-03-14T02:56:04;2.93;;;1.70;;
76733;SDS011;65660;53.288;14.666;2023-03-14T03:01:05;1.70;;;1.40;;
76733;SDS011;65660;53.288;14.666;2023-03-14T03:06:06;2.67;;;1.70;;
76733;SDS011;65660;53.288;14.666;2023-03-14T03:11:07;3.10;;;1.70;;
76733;SDS011;65660;53.288;14.666;2023-03-14T03:16:07;2.13;;;1.60;;
76733;SDS011;65660;53.288;14.666;2023-03-14T03:21:08;2.10;;;1.57;;
76733;SDS011;65660;53.288;14.666;2023-03-14T03:26:09;1.80;;;1.50;;
76733;SDS011;65660;53.288;14.666;2023-03-14T03:31:10;1.70;;;1.60;;
76733;SDS011;65660;53.288;14.666;2023-03-14T03:36:11;2.10;;;1.80;;
76733;SDS011;65660;53.288;14.666;2023-03-14T03:41:11;1.77;;;1.50;;
76733;SDS011;65660;53.288;14.666;2023-03-14T03:46:12;1.80;;;1.67;;
76733;SDS011;65660;53.288;14.666;2023-03-14T03:51:13;3.10;;;1.57;;
76733;SDS011;65660;53.288;14.666;2023-03-14T03:56:14;1.80;;;1.57;;
76733;SDS011;65660;53.288;14.666;2023-03-14T04:01:15;1.50;;;1.40;;
76733;SDS011;65660;53.288;14.666;2023-03-14T04:06:15;2.23;;;1.53;;
76733;SDS011;65660;53.288;14.666;2023-03-14T04:11:16;1.50;;;1.40;;
76733;SDS011;65660;53.288;14.666;2023-03-14T04:16:18;2.90;;;1.50;;
76733;SDS011;65660;53.288;14.666;2023-03-14T04:21:20;2.17;;;1.50;;
76733;SDS011;65660;53.288;14.666;2023-03-14T04:26:20;2.03;;;1.40;;
76733;SDS011;65660;53.288;14.666;2023-03-14T04:31:21;1.73;;;1.40;;
76733;SDS011;65660;53.288;14.666;2023-03-14T04:36:22;1.80;;;1.70;;
76733;SDS011;65660;53.288;14.666;2023-03-14T04:41:22;1.53;;;1.30;;
76733;SDS011;65660;53.288;14.666;2023-03-14T04:46:23;1.57;;;1.43;;
76733;SDS011;65660;53.288;14.666;2023-03-14T04:51:23;1.57;;;1.47;;
76733;SDS011;65660;53.288;14.666;2023-03-14T04:56:24;1.70;;;1.60;;
76733;SDS011;65660;53.288;14.666;2023-03-14T05:01:24;2.03;;;1.70;;
76733;SDS011;65660;53.288;14.666;2023-03-14T05:06:25;1.70;;;1.50;;
76733;SDS011;65660;53.288;14.666;2023-03-14T05:11:25;1.37;;;1.20;;
76733;SDS011;65660;53.288;14.666;2023-03-14T05:16:26;1.60;;;1.30;;
76733;SDS011;65660;53.288;14.666;2023-03-14T05:21:26;1.97;;;1.67;;
76733;SDS011;65660;53.288;14.666;2023-03-14T05:26:27;2.83;;;1.43;;
76733;SDS011;65660;53.288;14.666;2023-03-14T05:31:28;1.50;;;1.40;;
76733;SDS011;65660;53.288;14.666;2023-03-14T05:36:28;3.30;;;1.97;;
76733;SDS011;65660;53.288;14.666;2023-03-14T05:41:28;1.97;;;1.40;;
76733;SDS011;65660;53.288;14.666;2023-03-14T05:46:29;1.80;;;1.70;;
76733;SDS011;65660;53.288;14.666;2023-03-14T05:51:30;2.33;;;1.50;;
76733;SDS011;65660;53.288;14.666;2023-03-14T05:56:30;1.60;;;1.50;;
76733;SDS011;65660;53.288;14.666;2023-03-14T06:01:30;1.70;;;1.60;;
76733;SDS011;65660;53.288;14.666;2023-03-14T06:06:31;1.90;;;1.60;;
76733;SDS011;65660;53.288;14.666;2023-03-14T06:11:31;2.23;;;1.80;;
76733;SDS011;65660;53.288;14.666;2023-03-14T06:16:32;1.50;;;1.40;;
76733;SDS011;65660;53.288;14.666;2023-03-14T06:21:32;3.00;;;1.60;;
76733;SDS011;65660;53.288;14.666;2023-03-14T06:26:33;1.60;;;1.50;;
76733;SDS011;65660;53.288;14.666;2023-03-14T06:31:33;1.63;;;1.50;;
76733;SDS011;65660;53.288;14.666;2023-03-14T06:36:34;2.33;;;1.47;;
76733;SDS011;65660;53.288;14.666;2023-03-14T06:41:34;3.40;;;1.67;;
76733;SDS011;65660;53.288;14.666;2023-03-14T06:46:35;2.20;;;1.40;;
76733;SDS011;65660;53.288;14.666;2023-03-14T06:51:35;1.93;;;1.50;;
76733;SDS011;65660;53.288;14.666;2023-03-14T06:56:36;1.33;;;1.23;;
76733;SDS011;65660;53.288;14.666;2023-03-14T07:01:36;2.57;;;1.40;;
76733;SDS011;65660;53.288;14.666;2023-03-14T07:06:37;3.13;;;1.20;;
76733;SDS011;65660;53.288;14.666;2023-03-14T07:11:37;2.17;;;1.40;;
76733;SDS011;65660;53.288;14.666;2023-03-14T07:16:38;1.67;;;1.40;;
76733;SDS011;65660;53.288;14.666;2023-03-14T07:21:38;1.90;;;1.40;;
76733;SDS011;65660;53.288;14.666;2023-03-14T07:26:38;1.83;;;1.50;;
76733;SDS011;65660;53.288;14.666;2023-03-14T07:31:39;1.77;;;1.40;;
76733;SDS011;65660;53.288;14.666;2023-03-14T07:36:40;1.60;;;1.50;;
76733;SDS011;65660;53.288;14.666;2023-03-14T07:41:40;3.13;;;1.67;;
76733;SDS011;65660;53.288;14.666;2023-03-14T07:46:41;1.50;;;1.33;;
76733;SDS011;65660;53.288;14.666;2023-03-14T07:51:42;1.70;;;1.20;;
76733;SDS011;65660;53.288;14.666;2023-03-14T07:56:43;2.70;;;1.70;;
76733;SDS011;65660;53.288;14.666;2023-03-14T08:01:43;2.30;;;1.60;;
76733;SDS011;65660;53.288;14.666;2023-03-14T08:06:44;2.07;;;1.67;;
76733;SDS011;65660;53.288;14.666;2023-03-14T08:11:44;3.37;;;1.63;;
76733;SDS011;65660;53.288;14.666;2023-03-14T08:16:45;2.73;;;1.50;;
76733;SDS011;65660;53.288;14.666;2023-03-14T08:21:45;3.17;;;1.87;;
76733;SDS011;65660;53.288;14.666;2023-03-14T08:26:46;2.67;;;1.40;;
76733;SDS011;65660;53.288;14.666;2023-03-14T08:31:46;2.53;;;1.50;;
76733;SDS011;65660;53.288;14.666;2023-03-14T08:36:47;2.23;;;1.40;;
76733;SDS011;65660;53.288;14.666;2023-03-14T08:41:49;2.10;;;1.47;;
76733;SDS011;65660;53.288;14.666;2023-03-14T08:46:49;3.73;;;1.63;;
76733;SDS011;65660;53.288;14.666;2023-03-14T08:51:50;1.93;;;1.80;;
76733;SDS011;65660;53.288;14.666;2023-03-14T08:56:50;2.90;;;1.60;;
76733;SDS011;65660;53.288;14.666;2023-03-14T09:01:51;3.23;;;1.77;;
76733;SDS011;65660;53.288;14.666;2023-03-14T09:06:52;4.40;;;1.98;;
76733;SDS011;65660;53.288;14.666;2023-03-14T09:11:52;2.33;;;1.60;;
76733;SDS011;65660;53.288;14.666;2023-03-14T09:16:53;3.20;;;2.00;;
76733;SDS011;65660;53.288;14.666;2023-03-14T09:21:54;2.80;;;2.10;;
76733;SDS011;65660;53.288;14.666;2023-03-14T09:26:55;4.30;;;2.70;;
76733;SDS011;65660;53.288;14.666;2023-03-14T09:31:56;3.40;;;2.88;;
76733;SDS011;65660;53.288;14.666;2023-03-14T09:36:59;2.78;;;1.65;;
76733;SDS011;65660;53.288;14.666;2023-03-14T09:42:01;2.55;;;1.90;;
76733;SDS011;65660;53.288;14.666;2023-03-14T09:47:06;3.70;;;1.90;;
76733;SDS011;65660;53.288;14.666;2023-03-14T09:52:12;2.42;;;2.13;;
76733;SDS011;65660;53.288;14.666;2023-03-14T09:57:20;2.67;;;2.20;;
76733;SDS011;65660;53.288;14.666;2023-03-14T10:02:23;3.53;;;2.33;;
76733;SDS011;65660;53.288;14.666;2023-03-14T10:07:28;2.63;;;2.15;;
76733;SDS011;65660;53.288;14.666;2023-03-14T10:12:31;5.15;;;2.35;;
76733;SDS011;65660;53.288;14.666;2023-03-14T10:17:42;3.00;;;2.30;;
76733;SDS011;65660;53.288;14.666;2023-03-14T10:22:50;3.78;;;2.75;;
76733;SDS011;65660;53.288;14.666;2023-03-14T10:27:51;2.45;;;2.22;;
76733;SDS011;65660;53.288;14.666;2023-03-14T10:32:51;3.40;;;2.13;;
76733;SDS011;65660;53.288;14.666;2023-03-14T10:42:59;3.15;;;2.70;;
76733;SDS011;65660;53.288;14.666;2023-03-14T10:53:20;3.35;;;2.17;;
76733;SDS011;65660;53.288;14.666;2023-03-14T10:58:21;2.67;;;2.08;;
76733;SDS011;65660;53.288;14.666;2023-03-14T11:03:26;3.08;;;2.80;;
76733;SDS011;65660;53.288;14.666;2023-03-14T11:14:03;3.65;;;2.30;;
76733;SDS011;65660;53.288;14.666;2023-03-14T11:29:55;5.45;;;2.80;;
76733;SDS011;65660;53.288;14.666;2023-03-14T11:35:01;3.70;;;2.58;;
76733;SDS011;65660;53.288;14.666;2023-03-14T11:45:18;2.00;;;1.80;;
76733;SDS011;65660;53.288;14.666;2023-03-14T11:50:24;6.38;;;2.70;;
76733;SDS011;65660;53.288;14.666;2023-03-14T11:55:31;4.38;;;3.00;;
76733;SDS011;65660;53.288;14.666;2023-03-14T12:00:33;3.83;;;2.50;;
76733;SDS011;65660;53.288;14.666;2023-03-14T12:05:43;3.25;;;2.40;;
76733;SDS011;65660;53.288;14.666;2023-03-14T12:11:08;2.22;;;1.90;;
76733;SDS011;65660;53.288;14.666;2023-03-14T12:16:24;4.53;;;2.85;;
76733;SDS011;65660;53.288;14.666;2023-03-14T12:21:42;3.08;;;2.20;;
76733;SDS011;65660;53.288;14.666;2023-03-14T12:26:50;3.22;;;2.50;;
76733;SDS011;65660;53.288;14.666;2023-03-14T12:32:06;6.30;;;2.80;;
76733;SDS011;65660;53.288;14.666;2023-03-14T12:52:33;5.25;;;2.22;;
76733;SDS011;65660;53.288;14.666;2023-03-14T13:02:43;4.43;;;2.20;;
76733;SDS011;65660;53.288;14.666;2023-03-14T13:13:49;2.55;;;2.00;;
76733;SDS011;65660;53.288;14.666;2023-03-14T13:18:41;5.07;;;2.85;;
76733;SDS011;65660;53.288;14.666;2023-03-14T13:23:53;3.15;;;2.20;;
76733;SDS011;65660;53.288;14.666;2023-03-14T13:34:21;12.23;;;6.30;;
76733;SDS011;65660;53.288;14.666;2023-03-14T13:39:26;3.33;;;1.60;;
76733;SDS011;65660;53.288;14.666;2023-03-14T13:44:31;2.50;;;2.03;;
76733;SDS011;65660;53.288;14.666;2023-03-14T13:49:35;2.20;;;2.00;;
76733;SDS011;65660;53.288;14.666;2023-03-14T13:54:38;2.67;;;2.10;;
76733;SDS011;65660;53.288;14.666;2023-03-14T13:59:40;8.60;;;4.68;;
76733;SDS011;65660;53.288;14.666;2023-03-14T14:04:41;9.18;;;5.32;;
76733;SDS011;65660;53.288;14.666;2023-03-14T14:09:42;4.00;;;2.55;;
76733;SDS011;65660;53.288;14.666;2023-03-14T14:14:57;2.90;;;2.35;;
76733;SDS011;65660;53.288;14.666;2023-03-14T14:20:00;2.65;;;2.08;;
76733;SDS011;65660;53.288;14.666;2023-03-14T14:25:01;2.72;;;2.00;;
76733;SDS011;65660;53.288;14.666;2023-03-14T14:30:06;3.70;;;2.20;;
76733;SDS011;65660;53.288;14.666;2023-03-14T14:35:32;4.95;;;2.72;;
76733;SDS011;65660;53.288;14.666;2023-03-14T14:40:33;3.78;;;3.08;;
76733;SDS011;65660;53.288;14.666;2023-03-14T14:45:34;3.03;;;2.70;;
76733;SDS011;65660;53.288;14.666;2023-03-14T14:55:52;3.13;;;2.00;;
76733;SDS011;65660;53.288;14.666;2023-03-14T15:06:05;4.18;;;2.40;;
76733;SDS011;65660;53.288;14.666;2023-03-14T15:11:06;2.60;;;2.40;;
76733;SDS011;65660;53.288;14.666;2023-03-14T15:16:12;2.70;;;2.45;;
76733;SDS011;65660;53.288;14.666;2023-03-14T15:21:16;2.58;;;2.30;;
76733;SDS011;65660;53.288;14.666;2023-03-14T15:26:20;3.50;;;3.20;;
76733;SDS011;65660;53.288;14.666;2023-03-14T15:31:22;4.38;;;3.03;;
76733;SDS011;65660;53.288;14.666;2023-03-14T15:36:27;3.42;;;3.13;;
76733;SDS011;65660;53.288;14.666;2023-03-14T15:41:32;4.05;;;2.97;;
76733;SDS011;65660;53.288;14.666;2023-03-14T15:46:33;5.22;;;2.92;;
76733;SDS011;65660;53.288;14.666;2023-03-14T15:51:34;4.22;;;3.10;;
76733;SDS011;65660;53.288;14.666;2023-03-14T15:56:34;3.50;;;3.20;;
76733;SDS011;65660;53.288;14.666;2023-03-14T16:01:35;3.50;;;3.30;;
76733;SDS011;65660;53.288;14.666;2023-03-14T16:06:37;2.80;;;2.60;;
76733;SDS011;65660;53.288;14.666;2023-03-14T16:11:37;2.60;;;2.40;;
76733;SDS011;65660;53.288;14.666;2023-03-14T16:16:38;2.27;;;2.17;;
76733;SDS011;65660;53.288;14.666;2023-03-14T16:21:39;2.63;;;2.43;;
76733;SDS011;65660;53.288;14.666;2023-03-14T16:26:40;2.63;;;2.53;;
76733;SDS011;65660;53.288;14.666;2023-03-14T16:31:40;3.80;;;2.50;;
76733;SDS011;65660;53.288;14.666;2023-03-14T16:36:41;4.67;;;3.47;;
76733;SDS011;65660;53.288;14.666;2023-03-14T16:41:41;3.40;;;2.70;;
76733;SDS011;65660;53.288;14.666;2023-03-14T16:46:42;5.50;;;2.97;;
76733;SDS011;65660;53.288;14.666;2023-03-14T16:51:42;3.67;;;2.80;;
76733;SDS011;65660;53.288;14.666;2023-03-14T16:56:43;4.57;;;3.30;;
76733;SDS011;65660;53.288;14.666;2023-03-14T17:01:43;3.10;;;2.90;;
76733;SDS011;65660;53.288;14.666;2023-03-14T17:06:44;3.07;;;2.57;;
76733;SDS011;65660;53.288;14.666;2023-03-14T17:11:44;2.97;;;2.67;;
76733;SDS011;65660;53.288;14.666;2023-03-14T17:16:45;3.87;;;3.57;;
76733;SDS011;65660;53.288;14.666;2023-03-14T17:21:45;2.70;;;2.60;;
76733;SDS011;65660;53.288;14.666;2023-03-14T17:26:46;2.93;;;2.73;;
76733;SDS011;65660;53.288;14.666;2023-03-14T17:31:46;3.00;;;2.80;;
76733;SDS011;65660;53.288;14.666;2023-03-14T17:36:47;2.70;;;2.50;;
76733;SDS011;65660;53.288;14.666;2023-03-14T17:41:47;3.20;;;3.00;;
76733;SDS011;65660;53.288;14.666;2023-03-14T17:46:48;2.90;;;2.70;;
76733;SDS011;65660;53.288;14.666;2023-03-14T17:51:48;2.70;;;2.50;;
76733;SDS011;65660;53.288;14.666;2023-03-14T17:56:49;2.80;;;2.60;;
76733;SDS011;65660;53.288;14.666;2023-03-14T18:01:49;3.63;;;2.70;;
76733;SDS011;65660;53.288;14.666;2023-03-14T18:06:50;3.30;;;3.03;;
76733;SDS011;65660;53.288;14.666;2023-03-14T18:11:50;2.57;;;2.43;;
76733;SDS011;65660;53.288;14.666;2023-03-14T18:16:51;2.93;;;2.70;;
76733;SDS011;65660;53.288;14.666;2023-03-14T18:21:51;2.53;;;2.40;;
76733;SDS011;65660;53.288;14.666;2023-03-14T18:26:52;2.57;;;2.47;;
76733;SDS011;65660;53.288;14.666;2023-03-14T18:31:52;2.67;;;2.53;;
76733;SDS011;65660;53.288;14.666;2023-03-14T18:36:53;2.60;;;2.50;;
76733;SDS011;65660;53.288;14.666;2023-03-14T18:41:53;3.70;;;3.40;;
76733;SDS011;65660;53.288;14.666;2023-03-14T18:46:54;2.70;;;2.60;;
76733;SDS011;65660;53.288;14.666;2023-03-14T18:51:54;3.67;;;3.07;;
76733;SDS011;65660;53.288;14.666;2023-03-14T18:56:55;3.60;;;3.30;;
76733;SDS011;65660;53.288;14.666;2023-03-14T19:01:55;3.37;;;3.17;;
76733;SDS011;65660;53.288;14.666;2023-03-14T19:06:56;4.57;;;3.80;;
76733;SDS011;65660;53.288;14.666;2023-03-14T19:11:57;3.83;;;3.37;;
76733;SDS011;65660;53.288;14.666;2023-03-14T19:16:57;5.40;;;3.43;;
76733;SDS011;65660;53.288;14.666;2023-03-14T19:21:58;4.13;;;3.50;;
76733;SDS011;65660;53.288;14.666;2023-03-14T19:26:58;4.70;;;3.90;;
76733;SDS011;65660;53.288;14.666;2023-03-14T19:31:59;5.40;;;4.47;;
76733;SDS011;65660;53.288;14.666;2023-03-14T19:36:59;6.47;;;4.73;;
76733;SDS011;65660;53.288;14.666;2023-03-14T19:41:59;7.70;;;4.90;;
76733;SDS011;65660;53.288;14.666;2023-03-14T19:47:00;7.53;;;3.87;;
76733;SDS011;65660;53.288;14.666;2023-03-14T19:52:00;6.37;;;3.97;;
76733;SDS011;65660;53.288;14.666;2023-03-14T19:57:01;7.80;;;3.23;;
76733;SDS011;65660;53.288;14.666;2023-03-14T20:02:02;7.30;;;3.43;;
76733;SDS011;65660;53.288;14.666;2023-03-14T20:07:02;7.23;;;3.10;;
76733;SDS011;65660;53.288;14.666;2023-03-14T20:12:03;10.50;;;4.10;;
76733;SDS011;65660;53.288;14.666;2023-03-14T20:17:04;5.90;;;3.23;;
76733;SDS011;65660;53.288;14.666;2023-03-14T20:22:04;7.10;;;3.23;;
76733;SDS011;65660;53.288;14.666;2023-03-14T20:27:05;5.77;;;3.03;;
76733;SDS011;65660;53.288;14.666;2023-03-14T20:32:05;5.80;;;2.93;;
76733;SDS011;65660;53.288;14.666;2023-03-14T20:37:06;8.37;;;3.40;;
76733;SDS011;65660;53.288;14.666;2023-03-14T20:42:06;11.37;;;3.00;;
76733;SDS011;65660;53.288;14.666;2023-03-14T20:47:07;9.80;;;3.00;;
76733;SDS011;65660;53.288;14.666;2023-03-14T20:52:07;8.50;;;2.83;;
76733;SDS011;65660;53.288;14.666;2023-03-14T20:57:07;8.17;;;2.70;;
76733;SDS011;65660;53.288;14.666;2023-03-14T21:02:09;9.50;;;2.60;;
76733;SDS011;65660;53.288;14.666;2023-03-14T21:07:10;9.10;;;3.00;;
76733;SDS011;65660;53.288;14.666;2023-03-14T21:12:10;7.53;;;3.00;;
76733;SDS011;65660;53.288;14.666;2023-03-14T21:17:11;8.23;;;3.00;;
76733;SDS011;65660;53.288;14.666;2023-03-14T21:22:11;9.87;;;3.17;;
76733;SDS011;65660;53.288;14.666;2023-03-14T21:27:12;8.40;;;2.93;;
76733;SDS011;65660;53.288;14.666;2023-03-14T21:32:12;8.53;;;2.70;;
76733;SDS011;65660;53.288;14.666;2023-03-14T21:37:13;8.73;;;2.63;;
76733;SDS011;65660;53.288;14.666;2023-03-14T21:42:14;10.07;;;2.80;;
76733;SDS011;65660;53.288;14.666;2023-03-14T21:47:15;6.37;;;2.80;;
76733;SDS011;65660;53.288;14.666;2023-03-14T21:52:16;8.27;;;2.53;;
76733;SDS011;65660;53.288;14.666;2023-03-14T21:57:16;6.67;;;2.90;;
76733;SDS011;65660;53.288;14.666;2023-03-14T22:02:17;9.00;;;2.70;;
76733;SDS011;65660;53.288;14.666;2023-03-14T22:07:18;11.60;;;3.10;;
76733;SDS011;65660;53.288;14.666;2023-03-14T22:12:19;7.80;;;2.70;;
76733;SDS011;65660;53.288;14.666;2023-03-14T22:17:19;9.23;;;2.37;;
76733;SDS011;65660;53.288;14.666;2023-03-14T22:22:20;6.63;;;2.10;;
76733;SDS011;65660;53.288;14.666;2023-03-14T22:27:20;8.93;;;2.27;;
76733;SDS011;65660;53.288;14.666;2023-03-14T22:32:21;7.80;;;2.07;;
76733;SDS011;65660;53.288;14.666;2023-03-14T22:37:22;10.20;;;2.77;;
76733;SDS011;65660;53.288;14.666;2023-03-14T22:42:22;9.40;;;2.53;;
76733;SDS011;65660;53.288;14.666;2023-03-14T22:47:22;10.20;;;2.73;;
76733;SDS011;65660;53.288;14.666;2023-03-14T22:52:23;8.70;;;2.60;;
76733;SDS011;65660;53.288;14.666;2023-03-14T22:57:23;6.10;;;2.33;;
76733;SDS011;65660;53.288;14.666;2023-03-14T23:02:24;8.83;;;2.20;;
76733;SDS011;65660;53.288;14.666;2023-03-14T23:07:25;9.27;;;2.73;;
76733;SDS011;65660;53.288;14.666;2023-03-14T23:12:25;8.60;;;2.33;;
76733;SDS011;65660;53.288;14.666;2023-03-14T23:17:25;6.63;;;2.40;;
76733;SDS011;65660;53.288;14.666;2023-03-14T23:22:26;8.23;;;2.90;;
76733;SDS011;65660;53.288;14.666;2023-03-14T23:27:26;5.00;;;2.00;;
76733;SDS011;65660;53.288;14.666;2023-03-14T23:32:27;4.57;;;2.33;;
76733;SDS011;65660;53.288;14.666;2023-03-14T23:37:28;8.50;;;2.20;;
76733;SDS011;65660;53.288;14.666;2023-03-14T23:42:28;8.07;;;2.23;;
76733;SDS011;65660;53.288;14.666;2023-03-14T23:47:28;8.20;;;2.40;;
76733;SDS011;65660;53.288;14.666;2023-03-14T23:52:29;6.47;;;2.40;;
76733;SDS011;65660;53.288;14.666;2023-03-14T23:57:29;8.47;;;2.43;;
